createdAt,value
2023-10-24T00:01:16.853Z,83.62
2023-10-24T00:03:44.067Z,82.53
2023-10-24T00:06:11.052Z,83.81
2023-10-24T00:08:37.809Z,84.37
2023-10-24T00:14:49.481Z,83.92
2023-10-24T00:15:08.233Z,83.31
2023-10-24T00:17:35.082Z,83.75
2023-10-24T00:20:03.967Z,84.11
2023-10-24T00:22:35.731Z,83.43
2023-10-24T00:25:02.626Z,83.67
2023-10-24T00:28:32.138Z,83.59
2023-10-24T00:31:29.588Z,82.90
2023-10-24T00:33:57.675Z,82.93
2023-10-24T00:36:26.531Z,83.38
2023-10-24T00:42:18.816Z,84.65
2023-10-24T00:44:39.060Z,83.84
2023-10-24T00:44:45.619Z,84.67
2023-10-24T00:47:21.720Z,84.32
2023-10-24T00:50:38.964Z,83.60
2023-10-24T00:53:05.504Z,83.18
2023-10-24T00:55:37.879Z,83.08
2023-10-24T00:58:56.834Z,83.47
2023-10-24T01:01:26.598Z,84.15
2023-10-24T01:03:57.575Z,84.31
2023-10-24T01:06:24.611Z,84.49
2023-10-24T01:08:51.628Z,84.33
2023-10-24T01:11:19.087Z,85.16
2023-10-24T01:16:12.239Z,85.43
2023-10-24T01:16:56.381Z,84.80
2023-10-24T01:19:23.265Z,84.06
2023-10-24T01:21:50.579Z,83.90
2023-10-24T01:24:18.448Z,83.39
2023-10-24T01:26:46.028Z,83.32
2023-10-24T01:29:13.136Z,83.16
2023-10-24T01:31:42.771Z,82.77
2023-10-24T01:34:09.751Z,82.84
2023-10-24T01:36:37.914Z,83.23
2023-10-24T01:39:04.886Z,83.13
2023-10-24T01:42:02.069Z,83.56
2023-10-24T01:44:25.746Z,84.09
2023-10-24T01:46:52.855Z,84.67
2023-10-24T01:49:24.416Z,83.96
2023-10-24T01:52:45.092Z,83.34
2023-10-24T01:55:12.549Z,83.07
2023-10-24T01:57:43.438Z,82.72
2023-10-24T02:01:01.056Z,83.03
2023-10-24T02:03:28.468Z,82.75
2023-10-24T02:05:55.550Z,82.67
2023-10-24T02:08:24.369Z,82.91
2023-10-24T02:10:52.177Z,83.13
2023-10-24T02:13:22.615Z,83.30
2023-10-24T02:15:49.415Z,83.12
2023-10-24T02:18:16.264Z,83.69
2023-10-24T02:20:44.110Z,83.54
2023-10-24T02:23:13.522Z,83.28
2023-10-24T02:25:40.942Z,83.03
2023-10-24T02:28:14.120Z,83.18
2023-10-24T02:30:57.444Z,83.44
2023-10-24T02:33:24.325Z,83.78
2023-10-24T02:35:51.975Z,83.56
2023-10-24T02:38:18.910Z,84.08
2023-10-24T02:40:53.676Z,84.11
2023-10-24T02:43:20.494Z,84.49
2023-10-24T02:45:47.252Z,83.94
2023-10-24T02:48:14.131Z,84.21
2023-10-24T02:50:43.323Z,84.79
2023-10-24T02:53:10.447Z,84.63
2023-10-24T02:55:37.512Z,85.12
2023-10-24T02:58:29.475Z,84.46
2023-10-24T03:00:58.652Z,83.81
2023-10-24T03:03:25.945Z,84.46
2023-10-24T03:05:53.030Z,84.60
2023-10-24T03:10:43.591Z,85.81
2023-10-24T03:11:24.676Z,85.83
2023-10-24T03:13:58.366Z,86.31
2023-10-24T03:16:25.209Z,86.73
2023-10-24T03:19:02.770Z,86.10
2023-10-24T03:21:29.595Z,86.39
2023-10-24T03:24:18.878Z,86.46
2023-10-24T03:26:43.926Z,86.64
2023-10-24T03:29:10.675Z,86.72
2023-10-24T03:31:37.929Z,87.22
2023-10-24T03:34:05.020Z,87.33
2023-10-24T03:36:31.781Z,87.56
2023-10-24T03:38:58.483Z,88.00
2023-10-24T03:41:25.283Z,88.01
2023-10-24T03:43:53.321Z,87.72
2023-10-24T03:46:20.347Z,87.65
2023-10-24T03:48:47.202Z,87.65
2023-10-24T03:51:13.912Z,87.58
2023-10-24T03:53:40.686Z,87.44
2023-10-24T03:56:07.428Z,87.20
2023-10-24T03:58:34.230Z,87.37
2023-10-24T04:01:07.521Z,87.07
2023-10-24T04:03:36.242Z,87.54
2023-10-24T04:06:03.545Z,87.62
2023-10-24T04:08:30.298Z,87.61
2023-10-24T04:10:57.082Z,87.68
2023-10-24T04:13:24.045Z,87.64
2023-10-24T04:15:57.980Z,87.90
2023-10-24T04:18:24.711Z,87.85
2023-10-24T04:20:51.567Z,87.70
2023-10-24T04:23:18.372Z,87.78
2023-10-24T04:25:45.831Z,87.53
2023-10-24T04:28:13.253Z,87.52
2023-10-24T04:30:41.025Z,87.73
2023-10-24T04:33:08.692Z,88.06
2023-10-24T04:35:48.374Z,87.88
2023-10-24T04:38:16.765Z,87.94
2023-10-24T04:40:44.221Z,88.06
2023-10-24T04:43:11.116Z,88.01
2023-10-24T04:45:38.305Z,87.95
2023-10-24T04:48:06.197Z,87.80
2023-10-24T04:50:37.713Z,88.13
2023-10-24T04:53:04.573Z,88.05
2023-10-24T04:55:31.377Z,88.03
2023-10-24T04:57:58.723Z,87.73
2023-10-24T05:00:28.420Z,87.49
2023-10-24T05:02:55.414Z,87.99
2023-10-24T05:05:22.465Z,87.76
2023-10-24T05:07:50.284Z,87.91
2023-10-24T05:10:17.212Z,87.50
2023-10-24T05:12:44.001Z,87.76
2023-10-24T05:15:10.970Z,87.81
2023-10-24T05:17:38.129Z,87.82
2023-10-24T05:20:08.691Z,88.04
2023-10-24T05:22:36.046Z,88.23
2023-10-24T05:25:03.186Z,88.76
2023-10-24T05:27:32.668Z,88.63
2023-10-24T05:29:59.634Z,88.63
2023-10-24T05:32:26.514Z,88.56
2023-10-24T05:34:53.378Z,88.19
2023-10-24T05:37:20.310Z,88.35
2023-10-24T05:39:47.136Z,88.55
2023-10-24T05:42:13.913Z,89.50
2023-10-24T05:44:41.027Z,89.40
2023-10-24T05:47:07.821Z,89.46
2023-10-24T05:49:35.453Z,89.36
2023-10-24T05:52:02.251Z,89.26
2023-10-24T05:54:28.974Z,89.64
2023-10-24T05:56:55.867Z,89.45
2023-10-24T05:59:22.724Z,89.24
2023-10-24T06:01:49.579Z,88.99
2023-10-24T06:04:16.387Z,89.47
2023-10-24T06:06:44.077Z,89.73
2023-10-24T06:09:13.684Z,89.29
2023-10-24T06:11:40.922Z,89.41
2023-10-24T06:14:07.778Z,88.91
2023-10-24T06:16:34.532Z,89.06
2023-10-24T06:19:01.429Z,89.69
2023-10-24T06:21:29.740Z,89.01
2023-10-24T06:23:56.935Z,89.63
2023-10-24T06:26:23.667Z,89.29
2023-10-24T06:28:50.769Z,89.21
2023-10-24T06:31:18.384Z,89.36
2023-10-24T06:33:45.274Z,89.34
2023-10-24T06:36:12.104Z,89.38
2023-10-24T06:38:38.868Z,89.38
2023-10-24T06:41:11.128Z,89.31
2023-10-24T06:43:38.187Z,89.14
2023-10-24T06:46:06.334Z,89.40
2023-10-24T06:48:33.801Z,89.66
2023-10-24T06:51:00.833Z,89.32
2023-10-24T06:53:27.780Z,89.51
2023-10-24T06:56:00.462Z,89.59
2023-10-24T06:58:30.999Z,89.65
2023-10-24T07:00:58.239Z,89.41
2023-10-24T07:03:25.682Z,89.51
2023-10-24T07:05:53.414Z,89.68
2023-10-24T07:08:21.731Z,89.65
2023-10-24T07:10:49.422Z,89.95
2023-10-24T07:13:16.525Z,89.76
2023-10-24T07:15:43.653Z,89.69
2023-10-24T07:18:12.145Z,89.85
2023-10-24T07:20:40.027Z,89.11
2023-10-24T07:23:08.050Z,89.04
2023-10-24T07:25:34.929Z,89.17
2023-10-24T07:28:03.107Z,89.42
2023-10-24T07:30:31.009Z,89.00
2023-10-24T07:32:58.296Z,89.21
2023-10-24T07:35:25.069Z,89.24
2023-10-24T07:37:51.848Z,89.40
2023-10-24T07:40:20.316Z,89.21
2023-10-24T07:42:47.811Z,88.72
2023-10-24T07:45:15.016Z,88.99
2023-10-24T07:47:41.942Z,88.86
2023-10-24T07:50:10.118Z,89.05
2023-10-24T07:52:37.031Z,88.83
2023-10-24T07:55:04.242Z,88.80
2023-10-24T07:57:31.153Z,88.56
2023-10-24T07:59:58.951Z,88.38
2023-10-24T08:02:25.823Z,88.46
2023-10-24T08:04:52.744Z,88.46
2023-10-24T08:07:19.659Z,88.57
2023-10-24T08:09:46.515Z,88.73
2023-10-24T08:12:13.995Z,88.35
2023-10-24T08:14:40.985Z,88.75
2023-10-24T08:17:08.102Z,88.47
2023-10-24T08:19:35.021Z,88.28
2023-10-24T08:22:01.814Z,88.24
2023-10-24T08:24:28.577Z,88.19
2023-10-24T08:27:09.847Z,88.85
2023-10-24T08:29:38.069Z,88.45
2023-10-24T08:32:09.420Z,88.37
2023-10-24T08:34:38.299Z,88.08
2023-10-24T08:37:06.432Z,88.26
2023-10-24T08:39:33.144Z,88.77
2023-10-24T08:41:59.868Z,88.19
2023-10-24T08:44:28.104Z,86.83
2023-10-24T08:46:55.358Z,87.70
2023-10-24T08:49:22.646Z,88.12
2023-10-24T08:51:49.397Z,87.81
2023-10-24T08:54:16.230Z,88.47
2023-10-24T08:56:43.616Z,88.01
2023-10-24T08:59:12.425Z,88.54
2023-10-24T09:01:42.213Z,89.07
2023-10-24T09:04:09.235Z,88.51
2023-10-24T09:06:38.187Z,88.76
2023-10-24T09:09:05.430Z,88.37
2023-10-24T09:11:51.965Z,88.17
2023-10-24T09:14:18.902Z,87.54
2023-10-24T09:16:45.883Z,87.50
2023-10-24T09:19:15.811Z,87.39
2023-10-24T09:21:53.076Z,86.96
2023-10-24T09:24:30.555Z,87.22
2023-10-24T09:26:57.999Z,87.19
2023-10-24T09:29:27.788Z,86.36
2023-10-24T09:32:00.058Z,86.58
2023-10-24T09:34:28.376Z,86.83
2023-10-24T09:37:07.371Z,87.03
2023-10-24T09:39:58.032Z,86.81
2023-10-24T09:42:36.207Z,86.49
2023-10-24T09:45:07.342Z,86.73
2023-10-24T09:47:41.165Z,86.61
2023-10-24T09:50:11.378Z,86.03
2023-10-24T09:52:39.543Z,86.23
2023-10-24T09:55:07.330Z,84.99
2023-10-24T09:57:35.162Z,84.70
2023-10-24T10:00:04.662Z,84.48
2023-10-24T10:02:41.977Z,84.06
2023-10-24T10:05:09.371Z,84.96
2023-10-24T10:07:38.226Z,84.95
2023-10-24T10:10:06.636Z,85.35
2023-10-24T10:12:35.026Z,85.39
2023-10-24T10:15:23.636Z,85.78
2023-10-24T10:18:21.919Z,84.62
2023-10-24T10:21:09.234Z,85.18
2023-10-24T10:23:48.562Z,83.88
2023-10-24T10:26:30.906Z,82.65
2023-10-24T10:29:33.334Z,82.63
2023-10-24T10:32:39.355Z,82.43
2023-10-24T10:35:07.241Z,82.30
2023-10-24T10:37:35.736Z,82.16
2023-10-24T10:40:19.825Z,82.17
2023-10-24T10:42:49.392Z,81.99
2023-10-24T10:45:29.945Z,83.42
2023-10-24T10:48:05.854Z,83.11
2023-10-24T10:50:34.731Z,82.02
2023-10-24T10:53:14.277Z,80.94
2023-10-24T10:55:53.498Z,80.20
2023-10-24T10:58:33.039Z,80.80
2023-10-24T11:01:23.414Z,81.47
2023-10-24T11:03:50.837Z,79.62
2023-10-24T11:06:18.821Z,78.62
2023-10-24T11:09:11.670Z,78.81
2023-10-24T11:11:41.500Z,79.25
2023-10-24T11:14:16.290Z,80.48
2023-10-24T11:16:44.262Z,81.55
2023-10-24T11:19:19.695Z,80.84
2023-10-24T11:21:54.448Z,81.37
2023-10-24T11:24:23.095Z,81.50
2023-10-24T11:26:57.291Z,81.19
2023-10-24T11:29:24.328Z,81.58
2023-10-24T11:31:51.978Z,82.03
2023-10-24T11:34:20.119Z,81.91
2023-10-24T11:36:47.349Z,82.34
2023-10-24T11:39:17.421Z,81.95
2023-10-24T11:41:45.093Z,82.19
2023-10-24T11:44:18.889Z,82.09
2023-10-24T11:46:46.224Z,81.53
2023-10-24T11:49:13.288Z,80.67
2023-10-24T11:51:40.467Z,80.97
2023-10-24T11:54:08.851Z,80.29
2023-10-24T11:56:35.755Z,80.65
2023-10-24T11:59:04.639Z,80.50
2023-10-24T12:01:34.802Z,80.17
2023-10-24T12:04:02.406Z,80.15
2023-10-24T12:06:30.689Z,79.88
2023-10-24T12:08:59.349Z,79.40
2023-10-24T12:11:26.448Z,79.11
2023-10-24T12:13:53.577Z,79.65
2023-10-24T12:16:20.554Z,79.87
2023-10-24T12:18:47.330Z,79.26
2023-10-24T12:21:15.026Z,78.49
2023-10-24T12:23:41.978Z,77.78
2023-10-24T12:26:09.197Z,78.65
2023-10-24T12:28:37.586Z,78.58
2023-10-24T12:31:07.517Z,77.80
2023-10-24T12:33:34.329Z,78.61
2023-10-24T12:36:02.253Z,78.86
2023-10-24T12:38:30.177Z,79.76
2023-10-24T12:40:57.606Z,78.36
2023-10-24T12:43:25.080Z,78.34
2023-10-24T12:45:52.562Z,78.44
2023-10-24T12:48:20.694Z,78.20
2023-10-24T12:50:48.131Z,79.26
2023-10-24T12:53:15.732Z,79.62
2023-10-24T12:55:42.655Z,78.41
2023-10-24T12:58:09.634Z,78.52
2023-10-24T13:00:36.800Z,78.74
2023-10-24T13:03:15.645Z,77.79
2023-10-24T13:05:47.575Z,77.75
2023-10-24T13:08:14.586Z,76.92
2023-10-24T13:10:43.620Z,78.36
2023-10-24T13:13:10.580Z,77.52
2023-10-24T13:15:38.049Z,78.16
2023-10-24T13:18:05.146Z,78.94
2023-10-24T13:20:31.886Z,79.41
2023-10-24T13:22:59.012Z,79.12
2023-10-24T13:25:25.907Z,79.61
2023-10-24T13:27:52.770Z,78.99
2023-10-24T13:30:33.786Z,80.16
2023-10-24T13:33:06.665Z,78.91
2023-10-24T13:38:03.665Z,79.94
2023-10-24T13:40:30.450Z,80.09
2023-10-24T13:42:57.460Z,79.99
2023-10-24T13:45:26.310Z,81.44
2023-10-24T13:47:53.533Z,81.45
2023-10-24T13:50:20.456Z,81.06
2023-10-24T13:52:49.782Z,81.08
2023-10-24T13:55:17.270Z,81.78
2023-10-24T13:57:44.755Z,81.57
2023-10-24T14:00:12.457Z,81.86
2023-10-24T14:02:39.569Z,81.83
2023-10-24T14:05:07.048Z,81.24
2023-10-24T14:07:34.119Z,81.48
2023-10-24T14:10:00.960Z,80.86
2023-10-24T14:12:27.744Z,81.29
2023-10-24T14:14:54.596Z,81.45
2023-10-24T14:17:21.425Z,81.56
2023-10-24T14:19:50.286Z,81.34
2023-10-24T14:22:17.038Z,81.78
2023-10-24T14:24:43.866Z,81.46
2023-10-24T14:27:10.703Z,81.35
2023-10-24T14:29:37.577Z,81.37
2023-10-24T14:32:04.888Z,81.69
2023-10-24T14:34:31.678Z,81.86
2023-10-24T14:36:58.634Z,81.85
2023-10-24T14:39:25.559Z,81.91
2023-10-24T14:41:52.459Z,81.59
2023-10-24T14:44:19.208Z,82.51
2023-10-24T14:46:46.354Z,82.74
2023-10-24T14:49:16.838Z,82.35
2023-10-24T14:51:44.530Z,82.16
2023-10-24T14:54:11.456Z,82.45
2023-10-24T14:56:43.698Z,82.51
2023-10-24T14:59:10.829Z,82.08
2023-10-24T15:01:37.844Z,82.50
2023-10-24T15:04:05.171Z,82.93
2023-10-24T15:06:32.695Z,82.27
2023-10-24T15:09:00.628Z,82.59
2023-10-24T15:11:27.602Z,81.85
2023-10-24T15:13:54.429Z,82.97
2023-10-24T15:16:23.673Z,82.73
2023-10-24T15:18:51.318Z,83.02
2023-10-24T15:21:18.152Z,82.93
2023-10-24T15:23:44.915Z,82.38
2023-10-24T15:26:11.986Z,83.22
2023-10-24T15:28:39.186Z,83.68
2023-10-24T15:31:06.372Z,82.79
2023-10-24T15:33:34.073Z,83.02
2023-10-24T15:36:02.441Z,83.12
2023-10-24T15:38:29.565Z,82.66
2023-10-24T15:41:02.277Z,83.27
2023-10-24T15:43:30.865Z,83.81
2023-10-24T15:46:21.156Z,83.89
2023-10-24T15:48:49.136Z,83.12
2023-10-24T15:51:16.548Z,83.71
2023-10-24T15:53:43.271Z,83.63
2023-10-24T15:56:10.602Z,84.00
2023-10-24T15:58:42.161Z,83.95
2023-10-24T16:01:17.708Z,83.79
2023-10-24T16:03:46.372Z,83.65
2023-10-24T16:06:18.178Z,84.08
2023-10-24T16:08:45.079Z,83.84
2023-10-24T16:11:12.565Z,84.18
2023-10-24T16:13:39.705Z,83.77
2023-10-24T16:16:06.780Z,84.03
2023-10-24T16:18:33.842Z,83.74
2023-10-24T16:21:03.168Z,83.26
2023-10-24T16:23:31.451Z,83.63
2023-10-24T16:26:01.273Z,83.34
2023-10-24T16:28:29.155Z,83.35
2023-10-24T16:30:56.670Z,83.37
2023-10-24T16:33:23.786Z,82.97
2023-10-24T16:35:52.519Z,83.25
2023-10-24T16:38:19.369Z,83.30
2023-10-24T16:40:46.894Z,82.82
2023-10-24T16:43:13.944Z,83.14
2023-10-24T16:45:40.862Z,82.86
2023-10-24T16:48:08.760Z,83.12
2023-10-24T16:50:38.781Z,83.28
2023-10-24T16:53:06.377Z,83.53
2023-10-24T16:55:33.966Z,83.85
2023-10-24T16:58:00.928Z,83.49
2023-10-24T17:00:28.211Z,83.78
2023-10-24T17:02:55.116Z,83.97
2023-10-24T17:05:22.226Z,84.20
2023-10-24T17:07:49.362Z,84.21
2023-10-24T17:10:18.411Z,83.90
2023-10-24T17:12:45.355Z,84.58
2023-10-24T17:15:12.575Z,84.36
2023-10-24T17:17:39.603Z,84.36
2023-10-24T17:20:07.544Z,84.13
2023-10-24T17:22:34.723Z,84.20
2023-10-24T17:25:03.592Z,83.91
2023-10-24T17:27:32.818Z,84.02
2023-10-24T17:29:59.883Z,84.41
2023-10-24T17:32:26.754Z,83.97
2023-10-24T17:34:53.878Z,84.73
2023-10-24T17:37:20.950Z,85.01
2023-10-24T17:39:48.564Z,84.79
2023-10-24T17:42:15.670Z,84.77
2023-10-24T17:44:44.494Z,85.96
2023-10-24T17:47:11.508Z,85.37
2023-10-24T17:49:38.659Z,85.02
2023-10-24T17:52:05.857Z,85.05
2023-10-24T17:54:32.672Z,84.35
2023-10-24T17:56:59.489Z,84.17
2023-10-24T17:59:26.748Z,85.00
2023-10-24T18:01:53.648Z,85.17
2023-10-24T18:04:22.322Z,84.80
2023-10-24T18:06:49.811Z,84.55
2023-10-24T18:09:16.973Z,84.27
2023-10-24T18:11:45.448Z,84.45
2023-10-24T18:14:12.866Z,84.20
2023-10-24T18:16:39.933Z,84.52
2023-10-24T18:19:06.806Z,84.81
2023-10-24T18:21:33.694Z,83.96
2023-10-24T18:24:00.571Z,84.42
2023-10-24T18:26:27.731Z,84.24
2023-10-24T18:28:54.936Z,83.76
2023-10-24T18:31:22.102Z,83.56
2023-10-24T18:33:49.903Z,83.86
2023-10-24T18:36:17.791Z,83.93
2023-10-24T18:38:45.124Z,83.85
2023-10-24T18:41:13.993Z,83.92
2023-10-24T18:43:41.047Z,83.60
2023-10-24T18:46:09.758Z,83.96
2023-10-24T18:48:37.643Z,83.89
2023-10-24T18:51:12.135Z,84.58
2023-10-24T18:53:39.886Z,84.61
2023-10-24T18:56:06.807Z,84.23
2023-10-24T18:58:34.090Z,84.35
2023-10-24T19:01:03.985Z,84.23
2023-10-24T19:03:32.283Z,84.49
2023-10-24T19:05:59.672Z,84.57
2023-10-24T19:08:26.555Z,85.08
2023-10-24T19:10:53.704Z,85.11
2023-10-24T19:13:21.158Z,85.14
2023-10-24T19:15:48.516Z,85.20
2023-10-24T19:18:15.886Z,85.27
2023-10-24T19:20:46.073Z,85.11
2023-10-24T19:23:14.652Z,85.67
2023-10-24T19:25:42.940Z,85.64
2023-10-24T19:28:12.247Z,85.71
2023-10-24T19:30:41.925Z,85.12
2023-10-24T19:33:09.092Z,84.94
2023-10-24T19:35:37.312Z,85.18
2023-10-24T19:38:07.210Z,85.31
2023-10-24T19:40:38.859Z,85.60
2023-10-24T19:43:06.714Z,85.35
2023-10-24T19:45:34.157Z,85.77
2023-10-24T19:48:12.916Z,85.98
2023-10-24T19:50:40.547Z,85.40
2023-10-24T19:53:07.773Z,85.64
2023-10-24T19:55:44.246Z,85.63
2023-10-24T19:58:14.147Z,85.61
2023-10-24T20:00:42.476Z,85.39
2023-10-24T20:03:11.022Z,84.64
2023-10-24T20:05:49.420Z,84.96
2023-10-24T20:08:46.632Z,85.23
2023-10-24T20:12:37.591Z,85.44
2023-10-24T20:14:13.440Z,85.53
2023-10-24T20:16:44.727Z,85.25
2023-10-24T20:19:11.810Z,85.57
2023-10-24T20:21:38.888Z,85.71
2023-10-24T20:24:06.237Z,85.62
2023-10-24T20:26:37.592Z,85.67
2023-10-24T20:29:04.705Z,86.37
2023-10-24T20:31:31.622Z,86.44
2023-10-24T20:34:18.861Z,87.18
2023-10-24T20:37:39.701Z,87.21
2023-10-24T20:39:50.890Z,87.23
2023-10-24T20:42:20.639Z,87.22
2023-10-24T20:44:53.626Z,87.66
2023-10-24T20:47:21.557Z,87.23
2023-10-24T20:49:54.478Z,87.85
2023-10-24T20:52:24.224Z,87.83
2023-10-24T20:54:53.204Z,88.31
2023-10-24T20:57:20.165Z,87.90
2023-10-24T20:59:46.962Z,87.80
2023-10-24T21:02:13.905Z,88.07
2023-10-24T21:04:42.181Z,88.09
2023-10-24T21:07:09.397Z,88.32
2023-10-24T21:09:36.355Z,88.44
2023-10-24T21:12:05.661Z,88.56
2023-10-24T21:14:33.276Z,88.68
2023-10-24T21:17:00.301Z,88.61
2023-10-24T21:19:27.600Z,88.58
2023-10-24T21:21:54.551Z,88.46
2023-10-24T21:24:23.998Z,88.29
2023-10-24T21:26:51.223Z,88.34
2023-10-24T21:29:18.039Z,88.48
2023-10-24T21:31:47.138Z,88.18
2023-10-24T21:34:14.221Z,88.06
2023-10-24T21:36:41.175Z,88.25
2023-10-24T21:39:40.418Z,88.24
2023-10-24T21:42:04.639Z,88.14
2023-10-24T21:45:25.527Z,88.27
2023-10-24T21:48:12.016Z,88.28
2023-10-24T21:50:48.318Z,88.20
2023-10-24T21:53:17.565Z,88.29
2023-10-24T21:55:51.028Z,88.71
2023-10-24T21:58:40.756Z,88.71
2023-10-24T22:01:13.938Z,88.31
2023-10-24T22:03:40.990Z,88.59
2023-10-24T22:06:07.922Z,88.46
2023-10-24T22:08:34.890Z,88.27
2023-10-24T22:14:13.366Z,89.05
2023-10-24T22:14:42.796Z,88.68
2023-10-24T22:17:10.480Z,88.70
2023-10-24T22:19:37.445Z,88.94
2023-10-24T22:22:04.425Z,88.51
2023-10-24T22:24:31.701Z,88.64
2023-10-24T22:26:58.522Z,88.71
2023-10-24T22:29:25.369Z,88.92
2023-10-24T22:31:54.213Z,88.63
2023-10-24T22:34:21.756Z,88.63
2023-10-24T22:36:50.690Z,88.47
2023-10-24T22:39:17.760Z,88.34
2023-10-24T22:41:44.790Z,88.75
2023-10-24T22:44:11.908Z,88.31
2023-10-24T22:46:41.551Z,88.25
2023-10-24T22:49:09.490Z,88.40
2023-10-24T22:51:38.517Z,88.14
2023-10-24T22:54:08.326Z,88.89
2023-10-24T22:56:37.425Z,89.03
2023-10-24T22:59:06.874Z,88.94
2023-10-24T23:01:58.681Z,88.60
2023-10-24T23:04:26.029Z,88.58
2023-10-24T23:06:54.029Z,88.97
2023-10-24T23:09:21.691Z,89.08
2023-10-24T23:11:48.544Z,88.41
2023-10-24T23:14:19.740Z,88.61
2023-10-24T23:16:46.848Z,88.58
2023-10-24T23:19:13.923Z,88.84
2023-10-24T23:21:40.846Z,88.93
2023-10-24T23:24:08.073Z,88.99
2023-10-24T23:26:35.259Z,88.64
2023-10-24T23:29:02.159Z,88.49
2023-10-24T23:31:29.080Z,88.87
2023-10-24T23:33:58.231Z,89.11
2023-10-24T23:36:25.108Z,88.91
2023-10-24T23:38:52.079Z,88.73
2023-10-24T23:41:21.810Z,88.68
2023-10-24T23:43:48.755Z,88.53
2023-10-24T23:46:15.676Z,88.30
2023-10-24T23:48:42.611Z,88.77
2023-10-24T23:51:09.459Z,88.99
2023-10-24T23:53:36.312Z,88.94
2023-10-24T23:56:03.266Z,88.85
2023-10-24T23:58:45.223Z,88.88
